createdAt,value
2022-07-27T00:01:04.655Z,100513.28
2022-07-27T00:03:32.588Z,100524.91
2022-07-27T00:06:00.525Z,100511.66
2022-07-27T00:08:28.601Z,100512.25
2022-07-27T00:10:57.210Z,100525.47
2022-07-27T00:13:27.003Z,100525.72
2022-07-27T00:15:55.545Z,100508.03
2022-07-27T00:18:23.468Z,100535.72
2022-07-27T00:20:51.351Z,100524.94
2022-07-27T00:23:19.197Z,100526.53
2022-07-27T00:25:47.007Z,100529.63
2022-07-27T00:28:15.051Z,100504.47
2022-07-27T00:30:44.320Z,100527.34
2022-07-27T00:33:16.988Z,100530.41
2022-07-27T00:35:45.871Z,100529.81
2022-07-27T00:38:16.541Z,100518.19
2022-07-27T00:40:45.116Z,100530.88
2022-07-27T00:43:13.679Z,100535.28
2022-07-27T00:45:41.695Z,100532.53
2022-07-27T00:48:10.937Z,100533.94
2022-07-27T00:50:41.856Z,100527.81
2022-07-27T00:53:10.073Z,100536.31
2022-07-27T00:55:39.448Z,100518.41
2022-07-27T00:58:08.755Z,100536.84
2022-07-27T01:00:38.477Z,100540.41
2022-07-27T01:03:08.768Z,100533.78
2022-07-27T01:05:43.059Z,100530.50
2022-07-27T01:08:13.890Z,100520.50
2022-07-27T01:10:43.407Z,100528.81
2022-07-27T01:13:12.362Z,100533.78
2022-07-27T01:15:41.546Z,100536.81
2022-07-27T01:18:13.003Z,100537.91
2022-07-27T01:20:42.974Z,100545.34
2022-07-27T01:23:12.227Z,100506.44
2022-07-27T01:25:42.558Z,100543.34
2022-07-27T01:28:10.834Z,100538.41
2022-07-27T01:30:38.737Z,100521.84
2022-07-27T01:33:07.912Z,100538.34
2022-07-27T01:35:36.516Z,100549.91
2022-07-27T01:38:04.985Z,100539.41
2022-07-27T01:40:36.708Z,100520.16
2022-07-27T01:43:05.679Z,100526.06
2022-07-27T01:45:33.705Z,100511.75
2022-07-27T01:48:01.677Z,100533.06
2022-07-27T01:50:29.938Z,100527.78
2022-07-27T01:52:57.971Z,100526.38
2022-07-27T01:55:25.906Z,100524.47
2022-07-27T01:57:55.223Z,100546.75
2022-07-27T02:00:23.280Z,100535.50
2022-07-27T02:02:51.177Z,100527.16
2022-07-27T02:05:19.410Z,100538.84
2022-07-27T02:07:47.491Z,100525.13
2022-07-27T02:10:15.349Z,100524.72
2022-07-27T02:12:42.803Z,100530.28
2022-07-27T02:15:14.905Z,100479.13
2022-07-27T02:17:45.393Z,100526.00
2022-07-27T02:20:14.753Z,100525.06
2022-07-27T02:22:42.729Z,100526.41
2022-07-27T02:25:11.961Z,100505.91
2022-07-27T02:27:40.563Z,100533.28
2022-07-27T02:30:10.120Z,100538.47
2022-07-27T02:32:40.500Z,100523.84
2022-07-27T02:35:19.769Z,100541.22
2022-07-27T02:37:48.983Z,100534.59
2022-07-27T02:40:18.509Z,100505.91
2022-07-27T02:42:48.026Z,100524.13
2022-07-27T02:45:16.674Z,100524.94
2022-07-27T02:47:46.123Z,100530.34
2022-07-27T02:50:14.222Z,100524.34
2022-07-27T02:52:42.312Z,100522.44
2022-07-27T02:55:11.712Z,100513.28
2022-07-27T02:57:41.076Z,100522.94
2022-07-27T03:00:12.372Z,100525.09
2022-07-27T03:02:40.445Z,100532.03
2022-07-27T03:05:12.537Z,100531.66
2022-07-27T03:07:40.503Z,100534.91
2022-07-27T03:10:09.243Z,100534.16
2022-07-27T03:12:37.125Z,100533.28
2022-07-27T03:15:05.774Z,100530.31
2022-07-27T03:17:34.042Z,100539.66
2022-07-27T03:20:02.021Z,100518.72
2022-07-27T03:22:32.677Z,100520.34
2022-07-27T03:25:00.809Z,100525.00
2022-07-27T03:27:29.348Z,100531.06
2022-07-27T03:29:57.370Z,100511.81
2022-07-27T03:32:25.528Z,100518.38
2022-07-27T03:34:53.830Z,100534.06
2022-07-27T03:37:21.797Z,100537.97
2022-07-27T03:39:51.071Z,100538.13
2022-07-27T03:42:18.932Z,100537.59
2022-07-27T03:44:46.791Z,100529.53
2022-07-27T03:47:14.859Z,100533.38
2022-07-27T03:49:42.676Z,100541.09
2022-07-27T03:52:14.314Z,100548.97
2022-07-27T03:54:45.484Z,100538.94
2022-07-27T03:57:15.164Z,100536.13
2022-07-27T03:59:43.256Z,100545.72
2022-07-27T04:02:11.197Z,100541.59
2022-07-27T04:04:39.187Z,100545.13
2022-07-27T04:07:07.037Z,100545.19
2022-07-27T04:09:35.995Z,100557.81
2022-07-27T04:12:03.846Z,100542.59
2022-07-27T04:14:33.091Z,100539.75
2022-07-27T04:17:01.072Z,100550.03
2022-07-27T04:19:29.106Z,100561.09
2022-07-27T04:21:57.162Z,100558.34
2022-07-27T04:24:25.029Z,100556.44
2022-07-27T04:26:52.887Z,100571.00
2022-07-27T04:29:21.509Z,100567.91
2022-07-27T04:31:51.126Z,100548.72
2022-07-27T04:34:20.572Z,100534.59
2022-07-27T04:36:49.869Z,100528.38
2022-07-27T04:39:17.711Z,100560.88
2022-07-27T04:41:46.978Z,100561.72
2022-07-27T04:44:14.877Z,100559.75
2022-07-27T04:46:42.766Z,100540.16
2022-07-27T04:49:12.364Z,100540.41
2022-07-27T04:51:43.885Z,100558.97
2022-07-27T04:54:12.489Z,100558.50
2022-07-27T04:56:40.491Z,100572.00
2022-07-27T04:59:08.539Z,100580.38
2022-07-27T05:01:37.081Z,100577.19
2022-07-27T05:04:05.699Z,100572.38
2022-07-27T05:06:34.968Z,100563.41
2022-07-27T05:09:02.920Z,100542.28
2022-07-27T05:11:30.837Z,100575.13
2022-07-27T05:13:58.983Z,100575.06
2022-07-27T05:16:29.114Z,100583.22
2022-07-27T05:18:57.580Z,100521.84
2022-07-27T05:21:26.096Z,100587.66
2022-07-27T05:23:55.714Z,100577.69
2022-07-27T05:26:23.995Z,100587.91
2022-07-27T05:28:51.905Z,100581.94
2022-07-27T05:31:19.850Z,100587.38
2022-07-27T05:33:49.303Z,100602.47
2022-07-27T05:36:18.877Z,100586.63
2022-07-27T05:38:46.764Z,100585.34
2022-07-27T05:41:16.242Z,100595.31
2022-07-27T05:43:44.555Z,100578.00
2022-07-27T05:46:12.526Z,100603.72
2022-07-27T05:48:40.582Z,100602.81
2022-07-27T05:51:09.523Z,100610.50
2022-07-27T05:53:37.467Z,100605.88
2022-07-27T05:56:07.827Z,100610.81
2022-07-27T05:58:37.145Z,100599.41
2022-07-27T06:01:05.231Z,100584.72
2022-07-27T06:03:33.549Z,100611.72
2022-07-27T06:06:19.496Z,100612.69
2022-07-27T06:08:47.349Z,100617.94
2022-07-27T06:11:15.454Z,100584.25
2022-07-27T06:13:44.794Z,100618.78
2022-07-27T06:16:12.747Z,100594.66
2022-07-27T06:18:42.406Z,100623.81
2022-07-27T06:21:10.682Z,100623.97
2022-07-27T06:23:38.686Z,100624.50
2022-07-27T06:26:07.434Z,100638.84
2022-07-27T06:28:35.292Z,100630.22
2022-07-27T06:31:04.637Z,100614.88
2022-07-27T06:33:35.247Z,100623.53
2022-07-27T06:36:03.414Z,100627.66
2022-07-27T06:38:31.451Z,100628.78
2022-07-27T06:40:59.534Z,100629.59
2022-07-27T06:43:29.482Z,100632.56
2022-07-27T06:45:59.372Z,100626.97
2022-07-27T06:48:28.739Z,100628.13
2022-07-27T06:50:57.152Z,100630.13
2022-07-27T06:53:25.519Z,100638.06
2022-07-27T06:55:53.640Z,100640.84
2022-07-27T06:58:23.639Z,100634.00
2022-07-27T07:00:51.614Z,100629.81
2022-07-27T07:03:19.722Z,100635.03
2022-07-27T07:05:49.002Z,100633.38
2022-07-27T07:08:16.945Z,100651.66
2022-07-27T07:10:46.288Z,100636.38
2022-07-27T07:13:14.492Z,100635.53
2022-07-27T07:15:43.851Z,100635.03
2022-07-27T07:18:12.753Z,100641.63
2022-07-27T07:20:41.168Z,100623.31
2022-07-27T07:23:11.028Z,100626.94
2022-07-27T07:25:39.596Z,100582.88
2022-07-27T07:28:08.254Z,100643.50
2022-07-27T07:30:36.777Z,100646.25
2022-07-27T07:33:05.147Z,100639.13
2022-07-27T07:35:33.821Z,100647.91
2022-07-27T07:38:01.858Z,100625.09
2022-07-27T07:40:46.500Z,100643.31
2022-07-27T07:43:15.166Z,100643.81
2022-07-27T07:45:50.543Z,100609.28
2022-07-27T07:48:19.434Z,100638.28
2022-07-27T07:50:51.300Z,100628.97
2022-07-27T07:53:20.576Z,100625.13
2022-07-27T07:55:49.993Z,100635.06
2022-07-27T07:58:18.056Z,100641.44
2022-07-27T08:00:45.977Z,100651.31
2022-07-27T08:03:13.949Z,100656.03
2022-07-27T08:05:42.028Z,100653.03
2022-07-27T08:08:10.162Z,100641.09
2022-07-27T08:10:38.099Z,100651.03
2022-07-27T08:13:07.423Z,100640.00
2022-07-27T08:15:36.488Z,100643.13
2022-07-27T08:18:05.712Z,100646.97
2022-07-27T08:20:33.963Z,100647.78
2022-07-27T08:23:02.385Z,100650.00
2022-07-27T08:25:30.812Z,100646.38
2022-07-27T08:27:58.919Z,100642.75
2022-07-27T08:30:28.523Z,100639.75
2022-07-27T08:33:01.190Z,100640.91
2022-07-27T08:35:30.409Z,100651.13
2022-07-27T08:37:59.294Z,100632.88
2022-07-27T08:40:39.656Z,100651.09
2022-07-27T08:43:09.780Z,100642.78
2022-07-27T08:45:41.519Z,100625.41
2022-07-27T08:48:14.467Z,100649.91
2022-07-27T08:50:42.942Z,100634.97
2022-07-27T08:53:13.767Z,100646.31
2022-07-27T08:55:44.032Z,100651.00
2022-07-27T08:58:14.161Z,100638.59
2022-07-27T09:00:45.084Z,100644.41
2022-07-27T09:03:19.120Z,100627.06
2022-07-27T09:05:50.145Z,100643.22
2022-07-27T09:08:22.500Z,100628.88
2022-07-27T09:10:50.999Z,100648.25
2022-07-27T09:13:22.459Z,100647.69
2022-07-27T09:18:42.022Z,100644.41
2022-07-27T09:21:16.393Z,100636.34
2022-07-27T09:23:48.073Z,100611.91
2022-07-27T09:26:35.144Z,100648.78
2022-07-27T09:29:05.536Z,100636.13
2022-07-27T09:31:42.633Z,100646.63
2022-07-27T09:34:11.699Z,100648.00
2022-07-27T09:36:53.295Z,100646.84
2022-07-27T09:39:22.649Z,100646.56
2022-07-27T09:41:53.129Z,100633.38
2022-07-27T09:44:43.267Z,100633.00
2022-07-27T09:47:26.885Z,100643.97
2022-07-27T09:49:57.171Z,100635.63
2022-07-27T09:52:30.793Z,100636.50
2022-07-27T09:55:05.249Z,100634.66
2022-07-27T09:57:52.156Z,100627.41
2022-07-27T10:00:20.767Z,100621.88
2022-07-27T10:02:51.109Z,100642.44
2022-07-27T10:05:34.370Z,100640.97
2022-07-27T10:08:08.664Z,100643.22
2022-07-27T10:10:37.933Z,100631.16
2022-07-27T10:13:06.630Z,100626.22
2022-07-27T10:15:34.889Z,100629.00
2022-07-27T10:18:10.048Z,100618.22
2022-07-27T10:20:42.368Z,100631.91
2022-07-27T10:23:27.201Z,100646.66
2022-07-27T10:26:21.622Z,100627.25
2022-07-27T10:28:51.183Z,100628.06
2022-07-27T10:31:20.993Z,100633.72
2022-07-27T10:33:52.251Z,100637.75
2022-07-27T10:36:47.750Z,100621.66
2022-07-27T10:39:30.115Z,100636.75
2022-07-27T10:42:19.545Z,100636.94
2022-07-27T10:45:12.750Z,100634.69
2022-07-27T10:47:44.615Z,100642.06
2022-07-27T10:50:30.801Z,100638.72
2022-07-27T10:53:17.760Z,100635.75
2022-07-27T10:55:47.604Z,100634.19
2022-07-27T10:58:50.254Z,100640.00
2022-07-27T11:01:20.445Z,100643.56
2022-07-27T11:03:52.641Z,100639.09
2022-07-27T11:06:37.811Z,100626.88
2022-07-27T11:12:05.601Z,100620.47
2022-07-27T11:14:45.095Z,100620.72
2022-07-27T11:20:03.881Z,100621.41
2022-07-27T11:25:24.631Z,100616.84
2022-07-27T11:27:53.261Z,100615.16
2022-07-27T11:30:26.556Z,100614.34
2022-07-27T11:32:55.212Z,100604.13
2022-07-27T11:35:24.070Z,100611.56
2022-07-27T11:38:02.267Z,100617.06
2022-07-27T11:41:10.452Z,100599.84
2022-07-27T11:43:38.466Z,100606.69
2022-07-27T11:46:18.638Z,100607.50
2022-07-27T11:49:08.768Z,100599.94
2022-07-27T11:51:40.090Z,100593.50
2022-07-27T11:54:11.347Z,100586.63
2022-07-27T11:56:43.281Z,100583.34
2022-07-27T11:59:25.374Z,100584.75
2022-07-27T12:01:55.146Z,100580.19
2022-07-27T12:04:25.804Z,100582.44
2022-07-27T12:07:05.152Z,100579.06
2022-07-27T12:09:38.720Z,100585.59
2022-07-27T12:12:13.965Z,100577.13
2022-07-27T12:14:44.127Z,100582.75
2022-07-27T12:17:31.138Z,100575.50
2022-07-27T12:20:01.580Z,100583.13
2022-07-27T12:22:32.137Z,100580.03
2022-07-27T12:25:05.643Z,100569.53
2022-07-27T12:27:39.093Z,100577.16
2022-07-27T12:30:11.254Z,100580.66
2022-07-27T12:32:42.802Z,100585.13
2022-07-27T12:35:25.276Z,100573.13
2022-07-27T12:38:00.964Z,100572.09
2022-07-27T12:40:31.419Z,100573.50
2022-07-27T12:43:01.385Z,100568.53
2022-07-27T12:45:34.219Z,100577.88
2022-07-27T12:48:06.494Z,100573.72
2022-07-27T12:50:34.476Z,100565.53
2022-07-27T12:53:02.750Z,100569.19
2022-07-27T12:55:32.062Z,100569.78
2022-07-27T12:58:00.130Z,100569.75
2022-07-27T13:00:33.923Z,100572.38
2022-07-27T13:03:04.277Z,100566.06
2022-07-27T13:05:32.940Z,100563.41
2022-07-27T13:08:01.131Z,100562.47
2022-07-27T13:10:28.975Z,100558.97
2022-07-27T13:12:59.058Z,100554.44
2022-07-27T13:15:27.413Z,100551.44
2022-07-27T13:17:55.293Z,100561.75
2022-07-27T13:20:23.399Z,100561.03
2022-07-27T13:22:51.876Z,100550.53
2022-07-27T13:25:19.966Z,100548.91
2022-07-27T13:27:49.886Z,100556.97
2022-07-27T13:30:19.546Z,100518.41
2022-07-27T13:32:47.945Z,100549.72
2022-07-27T13:35:16.873Z,100531.81
2022-07-27T13:37:45.980Z,100545.94
2022-07-27T13:40:15.010Z,100541.84
2022-07-27T13:42:42.856Z,100539.50
2022-07-27T13:45:12.214Z,100530.97
2022-07-27T13:47:42.393Z,100524.28
2022-07-27T13:50:18.366Z,100509.28
2022-07-27T13:52:47.647Z,100521.94
2022-07-27T13:55:16.324Z,100523.00
2022-07-27T13:57:44.605Z,100526.03
2022-07-27T14:00:13.311Z,100506.34
2022-07-27T14:02:42.649Z,100511.31
2022-07-27T14:05:12.942Z,100509.91
2022-07-27T14:07:42.423Z,100515.28
2022-07-27T14:10:30.316Z,100495.34
2022-07-27T14:13:08.123Z,100513.53
2022-07-27T14:15:53.056Z,100506.06
2022-07-27T14:18:25.387Z,100506.13
2022-07-27T14:20:53.542Z,100522.78
2022-07-27T14:23:21.430Z,100511.97
2022-07-27T14:25:49.354Z,100516.44
2022-07-27T14:28:17.236Z,100506.03
2022-07-27T14:30:45.350Z,100502.94
2022-07-27T14:33:13.289Z,100510.25
2022-07-27T14:35:42.492Z,100507.78
2022-07-27T14:38:11.438Z,100515.22
2022-07-27T14:40:40.462Z,100512.78
2022-07-27T14:43:09.575Z,100504.97
2022-07-27T14:45:44.791Z,100519.50
2022-07-27T14:48:21.096Z,100510.88
2022-07-27T14:50:54.473Z,100518.09
2022-07-27T14:53:22.430Z,100511.78
2022-07-27T14:55:50.265Z,100509.06
2022-07-27T14:58:18.127Z,100491.84
2022-07-27T15:00:46.245Z,100503.88
2022-07-27T15:03:15.152Z,100514.75
2022-07-27T15:05:50.330Z,100489.44
2022-07-27T15:08:20.486Z,100502.09
2022-07-27T15:10:48.911Z,100499.63
2022-07-27T15:13:17.845Z,100505.41
2022-07-27T15:15:48.277Z,100500.81
2022-07-27T15:18:18.661Z,100502.31
2022-07-27T15:20:46.961Z,100500.25
2022-07-27T15:23:14.921Z,100500.63
2022-07-27T15:25:44.197Z,100500.38
2022-07-27T15:28:12.219Z,100492.53
2022-07-27T15:30:40.633Z,100497.31
2022-07-27T15:33:08.797Z,100497.53
2022-07-27T15:35:36.617Z,100489.56
2022-07-27T15:38:04.566Z,100492.97
2022-07-27T15:40:38.316Z,100498.41
2022-07-27T15:43:10.576Z,100491.13
2022-07-27T15:45:39.311Z,100490.16
2022-07-27T15:48:08.615Z,100490.66
2022-07-27T15:50:36.691Z,100476.38
2022-07-27T15:53:05.583Z,100478.38
2022-07-27T15:55:33.671Z,100473.19
2022-07-27T15:58:01.716Z,100472.88
2022-07-27T16:00:35.525Z,100463.38
2022-07-27T16:03:05.725Z,100459.28
2022-07-27T16:05:34.117Z,100466.19
2022-07-27T16:08:01.967Z,100424.34
2022-07-27T16:10:29.895Z,100466.91
2022-07-27T16:12:58.527Z,100456.03
2022-07-27T16:15:40.387Z,100466.69
2022-07-27T16:18:11.282Z,100468.50
2022-07-27T16:20:39.315Z,100458.97
2022-07-27T16:23:17.834Z,100460.63
2022-07-27T16:26:03.377Z,100480.28
2022-07-27T16:28:33.092Z,100479.69
2022-07-27T16:31:01.114Z,100473.84
2022-07-27T16:33:30.439Z,100471.19
2022-07-27T16:35:58.416Z,100484.25
2022-07-27T16:38:26.509Z,100480.81
2022-07-27T16:40:54.342Z,100475.59
2022-07-27T16:43:22.242Z,100471.69
2022-07-27T16:45:56.541Z,100475.88
2022-07-27T16:48:24.422Z,100456.03
2022-07-27T16:50:53.539Z,100473.63
2022-07-27T16:53:21.371Z,100467.97
2022-07-27T16:55:49.308Z,100469.56
2022-07-27T16:58:17.529Z,100465.78
2022-07-27T17:00:45.510Z,100468.69
2022-07-27T17:03:13.273Z,100456.53
2022-07-27T17:05:41.237Z,100471.31
2022-07-27T17:08:11.028Z,100443.84
2022-07-27T17:10:39.726Z,100460.88
2022-07-27T17:13:13.308Z,100466.84
2022-07-27T17:15:41.513Z,100473.25
2022-07-27T17:18:09.394Z,100470.47
2022-07-27T17:20:37.556Z,100469.44
2022-07-27T17:23:05.669Z,100472.13
2022-07-27T17:25:35.032Z,100460.91
2022-07-27T17:28:03.462Z,100459.88
2022-07-27T17:30:36.377Z,100473.56
2022-07-27T17:33:06.109Z,100468.78
2022-07-27T17:35:35.118Z,100469.75
2022-07-27T17:38:06.537Z,100469.84
2022-07-27T17:40:36.542Z,100474.75
2022-07-27T17:43:04.392Z,100472.59
2022-07-27T17:45:32.352Z,100468.75
2022-07-27T17:48:00.187Z,100476.41
2022-07-27T17:50:28.103Z,100463.75
2022-07-27T17:52:57.699Z,100472.22
2022-07-27T17:55:25.923Z,100476.94
2022-07-27T17:57:55.275Z,100474.06
2022-07-27T18:00:23.210Z,100475.81
2022-07-27T18:02:51.046Z,100463.66
2022-07-27T18:05:18.883Z,100477.34
2022-07-27T18:07:46.945Z,100480.91
2022-07-27T18:10:36.719Z,100478.25
2022-07-27T18:13:08.560Z,100489.22
2022-07-27T18:15:50.348Z,100483.13
2022-07-27T18:18:20.567Z,100480.31
2022-07-27T18:20:51.363Z,100498.69
2022-07-27T18:23:19.560Z,100490.81
2022-07-27T18:25:47.901Z,100491.56
2022-07-27T18:28:18.865Z,100493.91
2022-07-27T18:30:48.021Z,100495.91
2022-07-27T18:33:16.670Z,100487.22
2022-07-27T18:35:45.201Z,100487.38
2022-07-27T18:38:14.246Z,100498.63
2022-07-27T18:40:46.129Z,100503.41
2022-07-27T18:43:14.649Z,100486.69
2022-07-27T18:45:44.121Z,100504.75
2022-07-27T18:48:12.355Z,100503.66
2022-07-27T18:50:41.234Z,100502.16
2022-07-27T18:53:10.225Z,100507.13
2022-07-27T18:55:38.956Z,100514.06
2022-07-27T18:58:07.363Z,100529.00
2022-07-27T19:00:35.229Z,100532.09
2022-07-27T19:03:04.567Z,100531.88
2022-07-27T19:05:41.081Z,100517.56
2022-07-27T19:08:13.292Z,100541.59
2022-07-27T19:10:42.465Z,100531.72
2022-07-27T19:13:10.982Z,100547.69
2022-07-27T19:15:39.055Z,100548.56
2022-07-27T19:18:09.384Z,100551.56
2022-07-27T19:20:37.653Z,100540.84
2022-07-27T19:23:05.845Z,100552.69
2022-07-27T19:25:34.668Z,100559.03
2022-07-27T19:28:03.156Z,100553.78
2022-07-27T19:30:31.178Z,100557.94
2022-07-27T19:32:59.233Z,100566.72
2022-07-27T19:35:28.591Z,100576.91
2022-07-27T19:37:56.494Z,100577.19
2022-07-27T19:43:12.139Z,100583.78
2022-07-27T19:45:40.874Z,100580.16
2022-07-27T19:48:09.219Z,100584.53
2022-07-27T19:50:38.476Z,100585.94
2022-07-27T19:53:06.346Z,100597.22
2022-07-27T19:55:34.570Z,100576.78
2022-07-27T19:58:02.437Z,100590.81
2022-07-27T20:00:30.814Z,100586.09
2022-07-27T20:02:58.808Z,100607.28
2022-07-27T20:05:26.728Z,100605.09
2022-07-27T20:07:55.987Z,100614.09
2022-07-27T20:10:25.205Z,100599.81
2022-07-27T20:12:53.587Z,100589.84
2022-07-27T20:15:22.461Z,100616.00
2022-07-27T20:17:50.798Z,100616.53
2022-07-27T20:20:18.952Z,100619.22
2022-07-27T20:22:46.922Z,100603.78
2022-07-27T20:25:16.249Z,100603.22
2022-07-27T20:27:44.189Z,100590.78
2022-07-27T20:30:16.258Z,100609.78
2022-07-27T20:32:44.673Z,100612.78
2022-07-27T20:35:12.593Z,100622.66
2022-07-27T20:37:41.115Z,100617.41
2022-07-27T20:40:11.420Z,100620.13
2022-07-27T20:42:41.341Z,100622.31
2022-07-27T20:45:11.480Z,100607.66
2022-07-27T20:47:39.485Z,100615.88
2022-07-27T20:50:09.269Z,100616.63
2022-07-27T20:52:37.370Z,100611.75
2022-07-27T20:55:06.161Z,100614.78
2022-07-27T20:57:34.224Z,100616.38
2022-07-27T21:00:04.494Z,100614.69
2022-07-27T21:02:32.611Z,100610.06
2022-07-27T21:05:00.569Z,100611.84
2022-07-27T21:07:28.597Z,100616.31
2022-07-27T21:09:56.974Z,100620.66
2022-07-27T21:12:24.862Z,100625.34
2022-07-27T21:14:52.773Z,100627.25
2022-07-27T21:17:21.974Z,100629.16
2022-07-27T21:19:53.272Z,100627.41
2022-07-27T21:22:21.258Z,100599.53
2022-07-27T21:24:49.529Z,100624.88
2022-07-27T21:27:20.265Z,100621.88
2022-07-27T21:29:49.542Z,100624.75
2022-07-27T21:32:17.618Z,100626.16
2022-07-27T21:34:46.828Z,100630.19
2022-07-27T21:37:14.679Z,100619.97
2022-07-27T21:39:45.594Z,100627.13
2022-07-27T21:42:13.594Z,100623.81
2022-07-27T21:44:41.608Z,100630.00
2022-07-27T21:47:13.761Z,100614.25
2022-07-27T21:49:42.659Z,100613.13
2022-07-27T21:52:12.142Z,100634.88
2022-07-27T21:54:40.389Z,100633.22
2022-07-27T21:57:08.244Z,100621.34
2022-07-27T21:59:36.055Z,100624.63
2022-07-27T22:02:04.083Z,100635.41
2022-07-27T22:04:32.090Z,100611.59
2022-07-27T22:07:00.023Z,100644.16
2022-07-27T22:09:29.331Z,100650.63
2022-07-27T22:11:57.734Z,100651.41
2022-07-27T22:14:25.619Z,100649.31
2022-07-27T22:16:54.129Z,100643.81
2022-07-27T22:19:22.185Z,100651.50
2022-07-27T22:21:50.405Z,100653.03
2022-07-27T22:24:18.415Z,100657.28
2022-07-27T22:26:49.285Z,100649.41
2022-07-27T22:29:20.219Z,100652.75
2022-07-27T22:31:48.073Z,100665.94
2022-07-27T22:34:16.414Z,100670.16
2022-07-27T22:36:45.281Z,100669.34
2022-07-27T22:39:13.863Z,100669.34
2022-07-27T22:41:41.634Z,100660.94
2022-07-27T22:44:11.900Z,100659.63
2022-07-27T22:46:39.939Z,100669.44
2022-07-27T22:49:09.272Z,100668.19
2022-07-27T22:51:50.019Z,100670.81
2022-07-27T22:54:21.038Z,100673.72
2022-07-27T22:56:48.947Z,100671.81
2022-07-27T22:59:18.139Z,100671.69
2022-07-27T23:01:48.263Z,100652.44
2022-07-27T23:04:18.294Z,100674.13
2022-07-27T23:06:46.571Z,100664.72
2022-07-27T23:09:15.447Z,100674.69
2022-07-27T23:11:43.949Z,100682.13
2022-07-27T23:14:12.503Z,100675.34
2022-07-27T23:16:43.515Z,100668.69
2022-07-27T23:19:30.044Z,100673.44
2022-07-27T23:22:01.168Z,100676.41
2022-07-27T23:24:29.849Z,100675.63
2022-07-27T23:26:57.709Z,100671.16
2022-07-27T23:29:25.724Z,100654.88
2022-07-27T23:31:54.918Z,100679.44
2022-07-27T23:34:23.856Z,100677.22
2022-07-27T23:36:51.793Z,100679.00
2022-07-27T23:39:19.627Z,100677.69
2022-07-27T23:41:49.922Z,100676.63
2022-07-27T23:44:18.291Z,100681.50
2022-07-27T23:46:46.202Z,100680.75
2022-07-27T23:49:15.671Z,100677.41
2022-07-27T23:51:43.630Z,100670.16
2022-07-27T23:54:11.919Z,100670.50
2022-07-27T23:56:40.100Z,100667.69
2022-07-27T23:59:07.952Z,100650.13
